Fort Abbas Weather



Fort Abbas's Current Weather

Temprature 21.049o clear sky

clear sky

Rain: 0 %

Min Temprature21.049o
Max Temprature21.049o
Humidity66
Wind Speed1.76 m/h
Sun Rise06:40:16
Sun Set18:04:00
Current Time: 23-Feb-2019 16:26:40
Lat/Lon: 29.19, 72.85




Fort Abbas's Geo Location




Fort Abbas's Weather Forecast

Time Overall Temp Min Temp Max Temp Humidity Wind Speed Rain
23-Feb-2019 (Sat)
17:00:00 clear sky 20.700 20.700 21.049 66 1.76 m/h 0 %
20:00:00 clear sky 15.640 15.640 15.909 68 1.67 m/h 0 %
23:00:00 clear sky 13.490 13.490 13.665 78 2.22 m/h 0 %
24-Feb-2019 (Sun)
02:00:00 broken clouds 12.250 12.250 12.335 84 1.31 m/h 0 %
05:00:00 broken clouds 11.942 11.942 11.942 86 1.26 m/h 0 %
08:00:00 broken clouds 13.753 13.753 13.753 76 1.76 m/h 0 %
11:00:00 clear sky 19.599 19.599 19.599 85 2.66 m/h 0 %
14:00:00 clear sky 21.331 21.331 21.331 81 3.37 m/h 0 %
17:00:00 broken clouds 20.396 20.396 20.396 66 2.3 m/h 0 %
20:00:00 broken clouds 16.768 16.768 16.768 68 1.66 m/h 0 %
23:00:00 broken clouds 15.086 15.086 15.086 72 1.66 m/h 0 %
25-Feb-2019 (Mon)
02:00:00 clear sky 13.380 13.380 13.380 78 1.97 m/h 0 %
05:00:00 clear sky 11.977 11.977 11.977 82 1.86 m/h 0 %
08:00:00 scattered clouds 13.470 13.470 13.470 75 2.27 m/h 0 %
11:00:00 clear sky 18.847 18.847 18.847 89 0.96 m/h 0 %
14:00:00 light rain 20.473 20.473 20.473 89 1.67 m/h 8 %
17:00:00 few clouds 20.287 20.287 20.287 69 2.06 m/h 0 %
20:00:00 few clouds 16.123 16.123 16.123 72 2.46 m/h 0 %
23:00:00 clear sky 13.617 13.617 13.617 88 3.36 m/h 0 %
26-Feb-2019 (Tue)
02:00:00 broken clouds 12.326 12.326 12.326 94 3.81 m/h 0 %
05:00:00 broken clouds 11.472 11.472 11.472 93 2.91 m/h 0 %
08:00:00 overcast clouds 11.832 11.832 11.832 88 3.22 m/h 0 %
11:00:00 scattered clouds 14.742 14.742 14.742 90 3.77 m/h 0 %
14:00:00 broken clouds 17.671 17.671 17.671 89 3.66 m/h 0 %
17:00:00 light rain 16.264 16.264 16.264 85 3.46 m/h 85 %
20:00:00 light rain 13.961 13.961 13.961 82 2.52 m/h 3 %
23:00:00 clear sky 11.898 11.898 11.898 88 2.12 m/h 0 %
27-Feb-2019 (Wed)
02:00:00 clear sky 10.031 10.031 10.031 91 1.31 m/h 0 %
05:00:00 clear sky 8.944 8.944 8.944 89 1.3 m/h 0 %
08:00:00 clear sky 10.565 10.565 10.565 87 1.32 m/h 0 %
11:00:00 clear sky 16.970 16.970 16.970 99 2.51 m/h 0 %
14:00:00 clear sky 19.211 19.211 19.211 87 2.2 m/h 0 %
17:00:00 clear sky 19.223 19.223 19.223 67 2.01 m/h 0 %
20:00:00 few clouds 14.642 14.642 14.642 64 2.07 m/h 0 %
23:00:00 scattered clouds 13.241 13.241 13.241 70 4.17 m/h 0 %
28-Feb-2019 (Thu)
02:00:00 scattered clouds 12.491 12.491 12.491 77 4.16 m/h 0 %
05:00:00 few clouds 11.538 11.538 11.538 88 3.86 m/h 0 %
08:00:00 clear sky 12.040 12.040 12.040 87 4.76 m/h 0 %
11:00:00 clear sky 17.697 17.697 17.697 87 3.46 m/h 0 %
14:00:00 scattered clouds 19.979 19.979 19.979 80 2.62 m/h 0 %

Famous Cities (60)